Time;durP1;ratioP1;P1;durP2;ratioP2;P2;SDS_P1;SDS_P2;PMS_P1;PMS_P2;Temp;Humidity;BMP_temperature;BMP_pressure;BME280_temperature;BME280_humidity;BME280_pressure;Samples;Min_cycle;Max_cycle;Signal;HPM_P1;HPM_P2
2023/11/23 00:00:26;;;;;;;5.18;3.20;;;4.60;99.90;;;;;;5068998;28;20029;-52
2023/11/23 00:02:52;;;;;;;6.43;3.53;;;4.60;99.90;;;;;;5069075;28;20048;-51
2023/11/23 00:05:19;;;;;;;5.75;3.50;;;4.60;99.90;;;;;;5068886;28;20028;-52
2023/11/23 00:07:45;;;;;;;6.47;3.40;;;4.60;99.90;;;;;;5068664;28;20023;-51
2023/11/23 00:10:11;;;;;;;4.60;3.38;;;4.60;99.90;;;;;;5068960;28;20032;-51
2023/11/23 00:12:36;;;;;;;6.55;3.78;;;4.60;99.90;;;;;;5068991;28;20032;-51
2023/11/23 00:15:03;;;;;;;7.10;3.38;;;4.60;99.90;;;;;;5068753;28;20150;-52
2023/11/23 00:17:30;;;;;;;6.80;3.90;;;4.60;99.90;;;;;;5067090;28;20029;-51
2023/11/23 00:19:56;;;;;;;5.30;3.40;;;4.60;99.90;;;;;;5068632;28;20031;-51
2023/11/23 00:22:21;;;;;;;6.15;4.00;;;4.70;99.90;;;;;;5068955;28;20025;-48
2023/11/23 00:24:47;;;;;;;6.63;4.03;;;4.70;99.90;;;;;;5067665;28;20032;-51
2023/11/23 00:27:14;;;;;;;7.47;3.97;;;4.70;99.90;;;;;;5068209;28;20104;-53
2023/11/23 00:29:40;;;;;;;8.73;4.20;;;4.70;99.90;;;;;;5068900;28;20162;-52
2023/11/23 00:32:07;;;;;;;7.75;3.60;;;4.80;99.90;;;;;;5072385;28;20471;-51
2023/11/23 00:34:33;;;;;;;4.85;3.00;;;4.80;99.90;;;;;;5072388;28;20016;-54
2023/11/23 00:36:59;;;;;;;4.53;3.17;;;4.80;99.90;;;;;;5072069;28;20331;-52
2023/11/23 00:39:24;;;;;;;5.68;3.38;;;4.90;99.90;;;;;;5072289;28;20035;-53
2023/11/23 00:41:51;;;;;;;6.18;3.70;;;4.90;99.90;;;;;;5072597;28;20028;-52
2023/11/23 00:44:18;;;;;;;5.32;3.58;;;4.90;99.90;;;;;;5071926;28;20531;-55
2023/11/23 00:46:43;;;;;;;6.80;3.90;;;5.00;99.90;;;;;;5071588;28;20025;-54
2023/11/23 00:49:09;;;;;;;6.80;3.75;;;5.00;99.90;;;;;;5071645;28;20040;-53
2023/11/23 00:51:36;;;;;;;6.68;3.63;;;5.10;99.90;;;;;;5071819;28;20046;-52
2023/11/23 00:54:04;;;;;;;8.10;3.53;;;5.10;99.90;;;;;;5071674;28;20031;-53
2023/11/23 00:56:29;;;;;;;6.28;3.55;;;5.20;99.90;;;;;;5071621;28;20024;-52
2023/11/23 00:58:55;;;;;;;4.93;3.00;;;5.20;99.90;;;;;;5071383;28;20021;-52
2023/11/23 01:01:21;;;;;;;6.13;3.65;;;5.20;99.90;;;;;;5072311;28;20393;-51
2023/11/23 01:03:46;;;;;;;11.95;3.92;;;5.20;99.90;;;;;;5071911;28;20052;-52
2023/11/23 01:06:12;;;;;;;5.30;3.72;;;5.20;99.90;;;;;;5071020;28;20033;-52
2023/11/23 01:08:37;;;;;;;8.50;4.32;;;5.30;99.90;;;;;;5071307;28;20020;-52
2023/11/23 01:11:03;;;;;;;5.13;3.60;;;5.30;99.90;;;;;;5069862;28;20032;-53
2023/11/23 01:13:29;;;;;;;7.28;4.20;;;5.30;99.90;;;;;;5070461;28;20382;-52
2023/11/23 01:15:56;;;;;;;10.10;3.97;;;5.30;99.90;;;;;;5071492;28;20024;-52
2023/11/23 01:18:23;;;;;;;10.77;4.32;;;5.30;99.90;;;;;;5070010;28;20551;-52
2023/11/23 01:20:49;;;;;;;9.05;4.05;;;5.40;99.90;;;;;;5071622;28;20028;-52
2023/11/23 01:23:15;;;;;;;8.68;4.50;;;5.40;99.90;;;;;;5071812;28;20094;-50
2023/11/23 01:25:40;;;;;;;7.32;4.30;;;5.50;99.90;;;;;;5071718;28;20473;-53
2023/11/23 01:28:06;;;;;;;12.90;5.07;;;5.50;99.90;;;;;;5070955;28;20028;-54
2023/11/23 01:30:31;;;;;;;9.38;4.78;;;5.50;99.90;;;;;;5071141;28;20113;-54
2023/11/23 01:32:57;;;;;;;7.88;4.93;;;5.50;99.90;;;;;;5071408;28;20539;-54
2023/11/23 01:35:22;;;;;;;12.25;4.53;;;5.60;99.90;;;;;;5071259;28;20099;-54
2023/11/23 01:37:49;;;;;;;7.63;4.45;;;5.60;99.90;;;;;;5070652;28;20024;-52
2023/11/23 01:40:15;;;;;;;11.27;5.18;;;5.60;99.90;;;;;;5070786;28;20020;-53
2023/11/23 01:42:41;;;;;;;9.57;4.75;;;5.60;99.90;;;;;;5070363;28;20541;-52
2023/11/23 01:45:07;;;;;;;12.18;5.45;;;5.60;99.90;;;;;;5069904;28;20070;-52
2023/11/23 01:47:39;;;;;;;8.63;5.00;;;5.60;99.90;;;;;;5069413;28;20301;-52
2023/11/23 01:50:07;;;;;;;12.75;5.40;;;5.60;99.90;;;;;;5069219;28;20036;-52
2023/11/23 01:52:33;;;;;;;10.65;5.03;;;5.60;99.90;;;;;;5070868;28;20107;-52
2023/11/23 01:54:59;;;;;;;9.05;5.40;;;5.60;99.90;;;;;;5070661;28;20120;-52
2023/11/23 01:57:30;;;;;;;10.15;5.10;;;5.70;99.90;;;;;;5070381;28;20028;-53
2023/11/23 01:59:57;;;;;;;6.63;4.45;;;5.70;99.90;;;;;;5070809;28;20020;-54
2023/11/23 02:02:23;;;;;;;9.55;4.75;;;5.70;99.90;;;;;;5070957;28;20044;-52
2023/11/23 02:04:51;;;;;;;11.40;4.78;;;5.60;99.90;;;;;;5069477;28;20021;-52
2023/11/23 02:07:17;;;;;;;7.82;5.07;;;5.70;99.90;;;;;;5069472;28;20021;-52
2023/11/23 02:09:42;;;;;;;6.57;4.85;;;5.70;99.90;;;;;;5071049;28;20401;-52
2023/11/23 02:12:09;;;;;;;10.40;5.38;;;5.70;99.90;;;;;;5070709;28;20123;-52
2023/11/23 02:14:36;;;;;;;7.97;5.25;;;5.70;99.90;;;;;;5070796;28;20028;-52
2023/11/23 02:17:18;;;;;;;13.45;6.47;;;5.70;99.90;;;;;;5070279;28;20489;-52
2023/11/23 02:19:46;;;;;;;10.15;5.93;;;5.70;99.90;;;;;;5070527;28;20035;-54
2023/11/23 02:22:11;;;;;;;11.45;6.85;;;5.80;99.90;;;;;;5070389;28;20296;-52
2023/11/23 02:24:39;;;;;;;8.30;5.60;;;5.80;99.90;;;;;;5070281;28;20379;-52
2023/11/23 02:27:06;;;;;;;9.60;6.28;;;5.80;99.90;;;;;;5069899;28;20488;-52
2023/11/23 02:29:32;;;;;;;15.18;7.25;;;5.80;99.90;;;;;;5070670;28;20036;-52
2023/11/23 02:31:58;;;;;;;18.92;7.78;;;5.90;99.90;;;;;;5070162;28;20028;-54
2023/11/23 02:34:24;;;;;;;14.80;8.07;;;5.90;99.90;;;;;;5070220;28;20024;-52
2023/11/23 02:36:50;;;;;;;13.77;7.70;;;5.90;99.90;;;;;;5068483;28;20440;-52
2023/11/23 02:39:15;;;;;;;13.05;7.78;;;5.90;99.90;;;;;;5070540;28;20099;-52
2023/11/23 02:41:41;;;;;;;18.17;8.27;;;5.90;99.90;;;;;;5070053;28;20016;-52
2023/11/23 02:44:06;;;;;;;18.80;8.35;;;5.90;99.90;;;;;;5069869;28;20480;-52
2023/11/23 02:46:32;;;;;;;14.15;9.07;;;6.00;99.90;;;;;;5068313;28;20021;-51
2023/11/23 02:48:58;;;;;;;16.52;8.45;;;6.00;99.90;;;;;;5068624;28;20056;-52
2023/11/23 02:51:25;;;;;;;16.88;9.48;;;6.00;99.90;;;;;;5069902;28;20528;-52
2023/11/23 02:53:50;;;;;;;16.17;9.82;;;6.00;99.90;;;;;;5069786;28;20029;-52
2023/11/23 02:56:16;;;;;;;15.93;9.73;;;6.00;99.90;;;;;;5069151;28;20031;-51
2023/11/23 02:58:42;;;;;;;16.38;9.50;;;6.00;99.90;;;;;;5069580;28;20023;-57
2023/11/23 03:01:08;;;;;;;17.20;9.65;;;6.00;99.90;;;;;;5069677;28;20029;-52
2023/11/23 03:03:33;;;;;;;17.73;10.27;;;6.00;99.90;;;;;;5069669;28;20040;-52
2023/11/23 03:06:00;;;;;;;21.17;10.98;;;6.00;99.90;;;;;;5069495;28;20024;-52
2023/11/23 03:08:25;;;;;;;19.50;10.77;;;6.00;99.90;;;;;;5069393;28;20066;-52
2023/11/23 03:10:53;;;;;;;23.15;10.68;;;6.00;99.90;;;;;;5069565;28;20106;-52
2023/11/23 03:13:19;;;;;;;22.33;12.15;;;6.00;99.90;;;;;;5068248;28;20453;-51
2023/11/23 03:15:45;;;;;;;23.05;11.13;;;6.00;99.90;;;;;;5069432;28;20182;-52
2023/11/23 03:18:10;;;;;;;24.30;12.38;;;6.00;99.90;;;;;;5069204;28;20608;-52
2023/11/23 03:20:36;;;;;;;19.08;12.55;;;5.90;99.90;;;;;;5069398;28;20017;-51
2023/11/23 03:23:01;;;;;;;23.10;12.48;;;5.90;99.90;;;;;;5069293;28;20032;-52
2023/11/23 03:25:27;;;;;;;23.75;12.43;;;5.90;99.90;;;;;;5068090;28;20158;-53
2023/11/23 03:27:52;;;;;;;19.88;11.82;;;6.00;99.90;;;;;;5068913;28;20017;-52
2023/11/23 03:30:18;;;;;;;23.95;12.27;;;5.90;99.90;;;;;;5069702;28;20025;-52
2023/11/23 03:32:43;;;;;;;26.40;12.43;;;6.00;99.90;;;;;;5069420;28;20031;-52
2023/11/23 03:35:09;;;;;;;22.80;12.85;;;6.00;99.90;;;;;;5069157;28;20544;-53
2023/11/23 03:37:35;;;;;;;26.45;13.50;;;6.00;99.90;;;;;;5067518;28;20031;-53
2023/11/23 03:40:02;;;;;;;22.65;12.57;;;6.00;99.90;;;;;;5069579;28;20028;-53
2023/11/23 03:42:28;;;;;;;22.30;12.82;;;6.00;99.90;;;;;;5069204;28;20078;-53
2023/11/23 03:44:53;;;;;;;20.42;11.45;;;6.00;99.90;;;;;;5069162;28;20509;-53
2023/11/23 03:47:19;;;;;;;20.52;11.60;;;6.00;99.90;;;;;;5069054;28;20478;-53
2023/11/23 03:49:45;;;;;;;20.75;12.65;;;6.10;99.90;;;;;;5069593;28;20390;-54
2023/11/23 03:52:11;;;;;;;31.70;13.15;;;6.00;99.90;;;;;;5069386;28;20032;-54
2023/11/23 03:54:37;;;;;;;25.35;13.05;;;6.00;99.90;;;;;;5069236;28;20051;-52
2023/11/23 03:57:04;;;;;;;21.60;13.70;;;6.00;99.90;;;;;;5069006;28;20028;-54
2023/11/23 03:59:29;;;;;;;25.25;14.20;;;6.00;99.90;;;;;;5069109;28;20070;-53
2023/11/23 04:01:55;;;;;;;27.77;13.65;;;6.00;99.90;;;;;;5069278;28;20029;-54
2023/11/23 04:04:21;;;;;;;25.20;14.05;;;6.00;99.90;;;;;;5069035;28;20103;-52
2023/11/23 04:06:46;;;;;;;24.83;14.23;;;6.00;99.90;;;;;;5071887;28;20024;-54
2023/11/23 04:09:12;;;;;;;26.08;14.15;;;6.00;99.90;;;;;;5073231;28;20067;-52
2023/11/23 04:11:38;;;;;;;31.17;15.20;;;6.00;99.90;;;;;;5073129;28;20056;-52
2023/11/23 04:14:04;;;;;;;26.23;14.55;;;6.00;99.90;;;;;;5073130;28;20489;-52
2023/11/23 04:16:29;;;;;;;33.75;16.48;;;6.00;99.90;;;;;;5072591;28;20493;-51
2023/11/23 04:18:55;;;;;;;28.23;15.75;;;6.00;99.90;;;;;;5072535;28;20083;-54
2023/11/23 04:21:21;;;;;;;27.02;15.77;;;6.00;99.90;;;;;;5072762;28;20055;-52
2023/11/23 04:23:46;;;;;;;23.92;15.20;;;6.00;99.90;;;;;;5073178;28;20055;-53
2023/11/23 04:26:12;;;;;;;25.15;14.80;;;6.00;99.90;;;;;;5072527;28;20063;-54
2023/11/23 04:28:39;;;;;;;29.63;15.02;;;6.10;99.90;;;;;;5072425;28;20028;-53
2023/11/23 04:31:05;;;;;;;29.08;15.55;;;6.00;99.90;;;;;;5071220;28;20029;-52
2023/11/23 04:33:31;;;;;;;20.75;13.88;;;6.00;99.90;;;;;;5072534;28;20150;-52
2023/11/23 04:35:57;;;;;;;24.83;15.57;;;6.00;99.90;;;;;;5072150;28;20020;-52
2023/11/23 04:38:23;;;;;;;27.17;14.00;;;5.90;99.90;;;;;;5072364;28;20036;-49
2023/11/23 04:40:48;;;;;;;25.70;14.52;;;5.90;99.90;;;;;;5071326;28;20032;-51
2023/11/23 04:43:14;;;;;;;27.23;14.68;;;5.90;99.90;;;;;;5072407;28;20381;-51
2023/11/23 04:45:40;;;;;;;27.90;14.95;;;5.90;99.90;;;;;;5072235;28;20017;-53
2023/11/23 04:48:06;;;;;;;28.05;15.18;;;5.80;99.90;;;;;;5071932;28;20103;-51
2023/11/23 04:50:33;;;;;;;27.13;15.05;;;5.80;99.90;;;;;;5070820;28;20567;-52
2023/11/23 04:52:58;;;;;;;27.95;16.00;;;5.80;99.90;;;;;;5072294;28;20059;-51
2023/11/23 04:55:25;;;;;;;27.90;14.65;;;5.80;99.90;;;;;;5072303;28;20021;-52
2023/11/23 04:57:50;;;;;;;26.35;13.98;;;5.80;99.90;;;;;;5072187;28;20101;-51
2023/11/23 05:00:16;;;;;;;26.65;14.75;;;5.70;99.90;;;;;;5072116;28;20533;-52
2023/11/23 05:02:43;;;;;;;24.88;14.35;;;5.80;99.90;;;;;;5072460;28;20025;-52
2023/11/23 05:05:14;;;;;;;27.20;15.02;;;5.70;99.90;;;;;;5071615;28;20070;-53
2023/11/23 05:07:40;;;;;;;24.88;15.02;;;5.80;99.90;;;;;;5071658;28;20024;-54
2023/11/23 05:10:08;;;;;;;28.27;14.65;;;5.80;99.90;;;;;;5072011;28;20490;-54
2023/11/23 05:12:34;;;;;;;27.23;15.23;;;5.80;99.90;;;;;;5070728;28;20040;-54
2023/11/23 05:14:59;;;;;;;24.67;15.13;;;5.80;99.90;;;;;;5072238;28;20028;-53
2023/11/23 05:17:25;;;;;;;25.48;14.55;;;5.80;99.90;;;;;;5071419;28;20040;-53
2023/11/23 05:19:51;;;;;;;26.65;15.70;;;5.80;99.90;;;;;;5070445;28;20031;-53
2023/11/23 05:22:17;;;;;;;33.53;16.88;;;5.80;99.90;;;;;;5071753;28;20410;-54
2023/11/23 05:24:42;;;;;;;28.33;15.95;;;5.80;99.90;;;;;;5071713;28;20012;-54
2023/11/23 05:27:08;;;;;;;32.13;17.60;;;5.80;99.90;;;;;;5071143;28;20055;-54
2023/11/23 05:29:34;;;;;;;28.35;16.48;;;5.90;99.90;;;;;;5071722;28;20066;-53
2023/11/23 05:31:59;;;;;;;30.58;17.15;;;5.90;99.90;;;;;;5071488;28;20501;-54
2023/11/23 05:34:25;;;;;;;36.30;17.13;;;5.90;99.90;;;;;;5071417;28;20496;-53
2023/11/23 05:36:51;;;;;;;29.77;17.02;;;5.90;99.90;;;;;;5070972;28;20125;-52
2023/11/23 05:39:17;;;;;;;27.02;17.05;;;5.90;99.90;;;;;;5071442;28;20499;-52
2023/11/23 05:41:43;;;;;;;29.35;17.75;;;6.00;99.90;;;;;;5071546;28;20048;-53
2023/11/23 05:44:09;;;;;;;34.35;17.30;;;6.00;99.90;;;;;;5071519;28;20064;-52
2023/11/23 05:46:34;;;;;;;34.92;19.63;;;6.00;99.90;;;;;;5071139;28;20066;-53
2023/11/23 05:49:00;;;;;;;31.13;18.55;;;6.10;99.90;;;;;;5069734;28;20025;-53
2023/11/23 05:51:27;;;;;;;31.20;17.42;;;6.10;99.90;;;;;;5071258;28;20021;-52
2023/11/23 05:53:53;;;;;;;28.38;17.77;;;6.10;99.90;;;;;;5071197;28;20066;-52
2023/11/23 05:56:19;;;;;;;29.85;17.77;;;6.20;99.90;;;;;;5069864;28;20055;-53
2023/11/23 05:58:44;;;;;;;32.63;19.30;;;6.20;99.90;;;;;;5070657;28;20028;-52
2023/11/23 06:01:10;;;;;;;31.60;18.80;;;6.20;99.90;;;;;;5070987;28;20025;-53
2023/11/23 06:03:37;;;;;;;31.58;19.15;;;6.30;99.90;;;;;;5070963;28;20502;-52
2023/11/23 06:06:03;;;;;;;33.88;20.38;;;6.30;99.90;;;;;;5070538;28;20041;-53
2023/11/23 06:08:29;;;;;;;30.80;18.33;;;6.30;99.90;;;;;;5070842;28;20025;-52
2023/11/23 06:10:54;;;;;;;26.98;17.60;;;6.40;99.90;;;;;;5070867;28;20039;-53
2023/11/23 06:13:20;;;;;;;30.50;17.60;;;6.30;99.90;;;;;;5070847;28;20451;-51
2023/11/23 06:15:46;;;;;;;35.63;20.23;;;6.30;99.90;;;;;;5070533;28;20029;-52
2023/11/23 06:18:11;;;;;;;33.13;19.85;;;6.40;99.90;;;;;;5070475;28;20031;-54
2023/11/23 06:20:37;;;;;;;37.88;20.65;;;6.40;99.90;;;;;;5070709;28;20037;-52
2023/11/23 06:23:02;;;;;;;38.25;21.58;;;6.40;99.90;;;;;;5070445;28;20021;-53
2023/11/23 06:25:28;;;;;;;35.10;19.92;;;6.40;99.90;;;;;;5070543;28;20115;-54
2023/11/23 06:27:54;;;;;;;32.03;19.35;;;6.40;99.90;;;;;;5069502;28;20027;-54
2023/11/23 06:30:19;;;;;;;33.55;19.60;;;6.40;99.90;;;;;;5070513;28;20123;-54
2023/11/23 06:32:45;;;;;;;36.08;21.45;;;6.50;99.90;;;;;;5070675;28;20035;-54
2023/11/23 06:35:11;;;;;;;32.75;19.80;;;6.50;99.90;;;;;;5070602;28;20024;-54
2023/11/23 06:37:36;;;;;;;33.92;20.67;;;6.60;99.90;;;;;;5070176;28;20099;-55
2023/11/23 06:40:03;;;;;;;30.38;19.25;;;6.60;99.90;;;;;;5070088;28;20039;-54
2023/11/23 06:42:28;;;;;;;33.85;20.52;;;6.60;99.90;;;;;;5069946;28;20104;-55
2023/11/23 06:44:54;;;;;;;29.70;19.60;;;6.70;99.90;;;;;;5070008;28;20099;-54
2023/11/23 06:47:20;;;;;;;32.88;19.52;;;6.70;99.90;;;;;;5069485;28;20553;-54
2023/11/23 06:49:45;;;;;;;32.67;20.33;;;6.70;99.90;;;;;;5068835;28;20028;-54
2023/11/23 06:52:11;;;;;;;37.45;21.33;;;6.70;99.90;;;;;;5069913;28;20032;-54
2023/11/23 06:54:37;;;;;;;32.72;20.75;;;6.70;99.90;;;;;;5068489;28;20024;-55
2023/11/23 06:57:03;;;;;;;38.92;21.85;;;6.80;99.90;;;;;;5069699;28;20535;-54
2023/11/23 06:59:33;;;;;;;34.97;21.23;;;6.80;99.90;;;;;;5070093;28;20112;-54
2023/11/23 07:01:58;;;;;;;33.90;19.77;;;6.80;99.90;;;;;;5068254;28;20020;-54
2023/11/23 07:04:24;;;;;;;37.20;20.45;;;6.90;99.90;;;;;;5069941;28;20035;-54
2023/11/23 07:06:50;;;;;;;32.67;19.85;;;6.90;99.90;;;;;;5069425;28;20024;-54
2023/11/23 07:09:17;;;;;;;34.38;21.33;;;6.90;99.90;;;;;;5069831;28;20056;-54
2023/11/23 07:11:44;;;;;;;36.20;21.85;;;6.90;99.90;;;;;;5069560;28;20029;-53
2023/11/23 07:14:10;;;;;;;40.20;23.38;;;6.90;99.90;;;;;;5068266;28;20020;-54
2023/11/23 07:16:36;;;;;;;36.47;22.23;;;6.90;99.90;;;;;;5068911;28;20039;-54
2023/11/23 07:19:02;;;;;;;34.83;21.60;;;6.90;99.90;;;;;;5069327;28;20044;-54
2023/11/23 07:21:28;;;;;;;37.03;21.67;;;6.90;99.90;;;;;;5069703;28;20138;-54
2023/11/23 07:23:53;;;;;;;37.88;21.83;;;7.00;99.90;;;;;;5069169;28;20209;-54
2023/11/23 07:26:20;;;;;;;36.03;22.13;;;7.00;99.90;;;;;;5069376;28;20025;-54
2023/11/23 07:28:46;;;;;;;42.03;23.38;;;7.00;99.90;;;;;;5069440;28;20150;-54
2023/11/23 07:31:11;;;;;;;42.50;23.38;;;7.10;99.90;;;;;;5069429;28;20369;-54
2023/11/23 07:33:38;;;;;;;40.70;25.00;;;7.10;99.90;;;;;;5069383;28;20017;-54
2023/11/23 07:36:05;;;;;;;43.60;24.40;;;7.20;99.90;;;;;;5069069;28;20016;-54
2023/11/23 07:38:32;;;;;;;47.15;26.40;;;7.20;99.90;;;;;;5068668;28;20167;-53
2023/11/23 07:40:58;;;;;;;52.25;27.60;;;7.30;99.90;;;;;;5066987;28;20025;-54
2023/11/23 07:43:24;;;;;;;46.70;27.23;;;7.40;99.90;;;;;;5068919;28;20017;-54
2023/11/23 07:45:50;;;;;;;52.97;28.60;;;7.50;99.90;;;;;;5068622;28;20016;-54
2023/11/23 07:48:16;;;;;;;52.38;28.75;;;7.60;99.90;;;;;;5068438;28;20075;-55
2023/11/23 07:50:43;;;;;;;55.25;28.50;;;7.70;99.90;;;;;;5068841;28;20096;-55
2023/11/23 07:53:09;;;;;;;51.03;26.23;;;7.80;99.90;;;;;;5069021;28;20021;-55
2023/11/23 07:55:34;;;;;;;47.00;25.83;;;7.90;99.90;;;;;;5069088;28;20031;-55
2023/11/23 07:58:00;;;;;;;49.85;25.50;;;7.90;99.90;;;;;;5069159;28;20244;-55
2023/11/23 08:00:26;;;;;;;42.70;23.95;;;8.00;99.90;;;;;;5068933;28;20036;-55
2023/11/23 08:02:54;;;;;;;43.55;24.35;;;8.00;99.90;;;;;;5067743;28;20079;-54
2023/11/23 08:05:20;;;;;;;40.85;23.92;;;8.10;99.90;;;;;;5068942;28;20074;-55
2023/11/23 08:07:47;;;;;;;35.47;21.27;;;8.10;99.90;;;;;;5068580;28;20024;-55
2023/11/23 08:10:15;;;;;;;36.00;21.25;;;8.10;99.90;;;;;;5069177;28;20025;-55
2023/11/23 08:12:42;;;;;;;38.88;21.52;;;8.20;99.90;;;;;;5068880;28;20037;-55
2023/11/23 08:15:09;;;;;;;33.85;20.80;;;8.20;99.90;;;;;;5068983;28;20020;-54
2023/11/23 08:17:36;;;;;;;37.63;19.65;;;8.20;99.90;;;;;;5068694;28;20051;-55
2023/11/23 08:20:06;;;;;;;33.78;19.98;;;8.30;99.90;;;;;;5068882;28;20394;-55
2023/11/23 08:22:32;;;;;;;;;;;8.30;99.90;;;;;;5068092;28;20020;-55
2023/11/23 08:24:57;;;;;;;30.02;17.58;;;8.40;99.90;;;;;;5068598;28;20361;-55
2023/11/23 08:27:24;;;;;;;27.60;17.58;;;8.40;99.90;;;;;;5068020;28;20137;-55
2023/11/23 08:29:50;;;;;;;28.58;17.08;;;8.40;99.90;;;;;;5067432;28;20444;-54
2023/11/23 08:32:15;;;;;;;33.83;18.48;;;8.40;99.90;;;;;;5068718;28;20029;-55
2023/11/23 08:34:41;;;;;;;28.45;17.98;;;8.40;99.90;;;;;;5067513;28;20029;-55
2023/11/23 08:37:07;;;;;;;29.17;16.65;;;8.40;99.90;;;;;;5067939;28;20016;-55
2023/11/23 08:39:34;;;;;;;31.38;17.30;;;8.50;99.90;;;;;;5068074;28;20020;-55
2023/11/23 08:42:00;;;;;;;29.73;16.98;;;8.50;99.90;;;;;;5068673;28;20032;-54
2023/11/23 08:44:25;;;;;;;26.52;16.45;;;8.50;99.90;;;;;;5066679;28;20017;-54
2023/11/23 08:46:51;;;;;;;30.20;18.27;;;8.50;99.90;;;;;;5068258;28;20108;-54
2023/11/23 08:49:17;;;;;;;32.65;18.13;;;8.50;99.90;;;;;;5068512;28;20031;-54
2023/11/23 08:51:42;;;;;;;33.22;18.15;;;8.50;99.90;;;;;;5070009;28;20375;-54
2023/11/23 08:54:08;;;;;;;28.73;17.48;;;8.60;99.90;;;;;;5072079;28;20473;-55
2023/11/23 08:56:36;;;;;;;31.25;16.85;;;8.60;99.90;;;;;;5072347;28;20092;-55
2023/11/23 08:59:02;;;;;;;27.17;16.50;;;8.60;99.90;;;;;;5071572;28;20024;-55
2023/11/23 09:01:28;;;;;;;26.73;16.88;;;8.60;99.90;;;;;;5071960;28;20066;-55
2023/11/23 09:03:54;;;;;;;31.05;16.92;;;8.70;99.90;;;;;;5070547;28;20021;-55
2023/11/23 09:06:20;;;;;;;29.65;17.38;;;8.70;99.90;;;;;;5071795;28;20432;-55
2023/11/23 09:08:46;;;;;;;25.50;17.08;;;8.70;99.90;;;;;;5071480;28;20040;-55
2023/11/23 09:11:11;;;;;;;29.15;17.75;;;8.70;99.90;;;;;;5071699;28;20060;-53
2023/11/23 09:13:37;;;;;;;30.88;17.73;;;8.70;99.90;;;;;;5071650;28;20024;-54
2023/11/23 09:16:03;;;;;;;28.05;15.45;;;8.70;99.90;;;;;;5070987;28;20111;-54
2023/11/23 09:18:30;;;;;;;30.35;16.88;;;8.80;99.90;;;;;;5071112;28;20552;-54
2023/11/23 09:20:56;;;;;;;32.17;18.23;;;8.80;99.90;;;;;;5071584;28;20025;-54
2023/11/23 09:23:21;;;;;;;32.60;18.10;;;8.80;99.90;;;;;;5071614;28;20040;-54
2023/11/23 09:25:47;;;;;;;30.17;16.00;;;8.80;99.90;;;;;;5070382;28;20056;-54
2023/11/23 09:28:14;;;;;;;28.33;16.90;;;8.90;99.90;;;;;;5071386;28;20039;-54
2023/11/23 09:30:40;;;;;;;31.42;18.90;;;8.90;99.90;;;;;;5071908;28;20066;-54
2023/11/23 09:33:09;;;;;;;29.13;17.63;;;8.90;99.90;;;;;;5070155;28;20024;-54
2023/11/23 09:35:39;;;;;;;34.58;18.52;;;8.90;99.90;;;;;;5069996;28;20021;-54
2023/11/23 09:38:06;;;;;;;30.90;18.60;;;8.90;99.90;;;;;;5071353;28;20028;-54
2023/11/23 09:40:32;;;;;;;30.33;18.48;;;8.90;99.90;;;;;;5071448;28;20615;-54
2023/11/23 09:42:58;;;;;;;34.97;18.42;;;9.00;99.90;;;;;;5071271;28;20107;-54
2023/11/23 09:45:24;;;;;;;29.35;18.50;;;9.00;99.90;;;;;;5071283;28;20527;-53
2023/11/23 09:47:51;;;;;;;31.70;18.40;;;9.00;99.90;;;;;;5070885;28;20384;-57
2023/11/23 09:50:18;;;;;;;30.90;17.77;;;9.00;99.90;;;;;;5071154;28;20020;-54
2023/11/23 09:52:45;;;;;;;38.47;20.38;;;9.00;99.90;;;;;;5070879;28;20039;-55
2023/11/23 09:55:16;;;;;;;31.67;18.20;;;9.10;99.90;;;;;;5070943;28;20020;-55
2023/11/23 09:57:48;;;;;;;31.08;18.55;;;9.10;99.90;;;;;;5070590;28;20170;-54
2023/11/23 10:00:18;;;;;;;35.58;18.83;;;9.20;99.90;;;;;;5071059;28;20118;-54
2023/11/23 10:02:55;;;;;;;31.08;18.60;;;9.10;99.90;;;;;;5070057;28;20048;-54
2023/11/23 10:05:22;;;;;;;31.33;19.38;;;9.10;99.90;;;;;;5070981;28;20119;-54
2023/11/23 10:07:49;;;;;;;35.28;18.10;;;9.20;99.90;;;;;;5070380;28;20024;-54
2023/11/23 10:10:15;;;;;;;37.17;18.52;;;9.20;99.90;;;;;;5069399;28;20389;-55
2023/11/23 10:12:41;;;;;;;34.92;18.67;;;9.20;99.90;;;;;;5070572;28;20037;-54
2023/11/23 10:15:10;;;;;;;28.67;17.73;;;9.20;99.90;;;;;;5070685;28;20028;-56
2023/11/23 10:17:36;;;;;;;27.02;18.67;;;9.20;99.90;;;;;;5070234;28;20096;-54
2023/11/23 10:20:15;;;;;;;27.75;17.67;;;9.20;99.90;;;;;;5070330;28;20032;-54
2023/11/23 10:22:48;;;;;;;34.08;19.98;;;9.30;99.90;;;;;;5070528;28;20042;-54
2023/11/23 10:25:31;;;;;;;30.80;18.48;;;9.20;99.90;;;;;;5070588;28;20091;-54
2023/11/23 10:28:00;;;;;;;32.10;18.63;;;9.30;99.90;;;;;;5070306;28;20399;-55
2023/11/23 10:30:27;;;;;;;36.50;19.40;;;9.30;99.90;;;;;;5070534;28;20043;-55
2023/11/23 10:32:56;;;;;;;31.67;18.80;;;9.30;99.90;;;;;;5070590;28;20086;-55
2023/11/23 10:35:23;;;;;;;31.63;17.90;;;9.30;99.90;;;;;;5070330;28;20036;-55
2023/11/23 10:37:58;;;;;;;33.47;19.48;;;9.30;99.90;;;;;;5069823;28;20024;-54
2023/11/23 10:40:25;;;;;;;36.63;21.05;;;9.30;99.90;;;;;;5068531;28;20393;-55
2023/11/23 10:42:52;;;;;;;29.00;18.05;;;9.40;99.90;;;;;;5069868;28;20066;-54
2023/11/23 10:45:19;;;;;;;33.38;18.27;;;9.40;99.90;;;;;;5069468;28;20024;-54
2023/11/23 10:47:47;;;;;;;29.40;18.02;;;9.40;99.90;;;;;;5068663;28;20096;-54
2023/11/23 10:50:16;;;;;;;30.52;18.27;;;9.40;99.90;;;;;;5069006;28;20995;-59
2023/11/23 10:52:44;;;;;;;27.50;17.80;;;9.40;99.90;;;;;;5069786;28;20429;-54
2023/11/23 10:55:13;;;;;;;32.92;17.58;;;9.40;99.90;;;;;;5069966;28;20031;-55
2023/11/23 10:57:44;;;;;;;28.38;17.23;;;9.50;99.90;;;;;;5069327;28;20086;-56
2023/11/23 11:00:22;;;;;;;28.70;17.02;;;9.50;99.90;;;;;;5069700;28;20027;-55
2023/11/23 11:02:49;;;;;;;31.67;17.75;;;9.50;99.90;;;;;;5069664;28;20059;-54
2023/11/23 11:05:29;;;;;;;25.35;16.77;;;9.60;99.90;;;;;;5069672;28;20012;-54
2023/11/23 11:08:04;;;;;;;;;;;9.60;99.90;;;;;;5069642;28;20028;-54
2023/11/23 11:10:51;;;;;;;34.28;17.48;;;9.60;99.90;;;;;;5069496;28;19904;-53
2023/11/23 11:13:20;;;;;;;28.40;16.92;;;9.60;99.90;;;;;;5069724;28;20040;-55
2023/11/23 11:15:59;;;;;;;26.75;16.73;;;9.60;99.90;;;;;;5069619;28;20021;-54
2023/11/23 11:18:31;;;;;;;35.58;17.55;;;9.70;99.90;;;;;;5069362;28;20034;-55
2023/11/23 11:21:07;;;;;;;26.38;17.33;;;9.70;99.90;;;;;;5069481;28;20078;-55
2023/11/23 11:23:39;;;;;;;30.20;15.63;;;9.80;99.90;;;;;;5068154;28;20112;-54
2023/11/23 11:26:27;;;;;;;29.27;16.88;;;9.80;99.90;;;;;;5069205;28;20104;-55
2023/11/23 11:29:03;;;;;;;33.47;16.35;;;9.80;99.90;;;;;;5060910;28;20275;-55
2023/11/23 11:31:31;;;;;;;27.15;16.52;;;9.80;99.90;;;;;;5068982;28;20043;-55
2023/11/23 11:33:59;;;;;;;26.98;16.67;;;9.80;99.90;;;;;;5068916;28;20117;-55
2023/11/23 11:36:27;;;;;;;29.00;16.90;;;9.80;99.90;;;;;;5069012;28;20424;-55
2023/11/23 11:39:00;;;;;;;25.35;16.15;;;9.90;99.90;;;;;;5066023;28;20028;-55
2023/11/23 11:41:34;;;;;;;23.52;15.52;;;9.90;99.90;;;;;;5066563;28;20013;-55
2023/11/23 11:44:00;;;;;;;26.67;14.95;;;10.00;99.90;;;;;;5069030;28;20044;-55
2023/11/23 11:46:29;;;;;;;24.73;15.02;;;10.00;99.90;;;;;;5068868;28;20048;-55
2023/11/23 11:48:57;;;;;;;20.63;14.35;;;10.00;99.90;;;;;;5069076;28;20100;-55
2023/11/23 11:51:25;;;;;;;23.33;13.68;;;10.10;99.90;;;;;;5069359;28;20418;-55
2023/11/23 11:53:51;;;;;;;26.90;15.32;;;10.00;99.90;;;;;;5069489;28;20052;-55
2023/11/23 11:56:17;;;;;;;19.05;14.15;;;10.00;99.90;;;;;;5068792;28;20066;-55
2023/11/23 11:58:44;;;;;;;27.48;14.20;;;10.00;99.90;;;;;;5068714;28;20020;-55
2023/11/23 12:01:10;;;;;;;22.55;12.80;;;10.10;99.90;;;;;;5068241;28;20383;-55
2023/11/23 12:03:36;;;;;;;21.50;13.63;;;10.10;99.90;;;;;;5066765;28;20442;-54
2023/11/23 12:06:03;;;;;;;20.90;12.48;;;10.10;99.90;;;;;;5064024;28;20049;-54
2023/11/23 12:08:35;;;;;;;24.13;12.77;;;10.10;99.90;;;;;;5066973;28;20070;-54
2023/11/23 12:11:02;;;;;;;22.35;11.77;;;10.20;99.90;;;;;;5068897;28;20054;-55
2023/11/23 12:13:29;;;;;;;22.02;11.95;;;10.20;99.90;;;;;;5068927;28;20016;-55
2023/11/23 12:15:55;;;;;;;17.88;10.07;;;10.20;99.90;;;;;;5068738;28;20099;-55
2023/11/23 12:18:32;;;;;;;14.95;10.25;;;10.20;99.90;;;;;;5067356;28;20029;-55
2023/11/23 12:20:58;;;;;;;13.23;9.02;;;10.30;99.90;;;;;;5068909;28;20060;-55
2023/11/23 12:23:24;;;;;;;14.32;9.10;;;10.40;99.90;;;;;;5069259;28;20100;-55
2023/11/23 12:25:51;;;;;;;15.27;8.45;;;10.40;99.90;;;;;;5067591;28;20455;-55
2023/11/23 12:28:23;;;;;;;15.35;8.10;;;10.40;99.90;;;;;;5070774;28;20420;-55
2023/11/23 12:30:49;;;;;;;12.65;7.70;;;10.50;99.90;;;;;;5071282;28;20021;-55
2023/11/23 12:33:15;;;;;;;15.90;7.72;;;10.50;99.90;;;;;;5070634;28;20031;-55
2023/11/23 12:35:40;;;;;;;15.85;7.38;;;10.60;99.90;;;;;;5069647;28;20028;-55
2023/11/23 12:38:07;;;;;;;10.43;6.93;;;10.60;99.90;;;;;;5071795;28;20028;-55